createdAt,value
2022-10-11T00:01:16.434Z,19.48
2022-10-11T00:03:42.821Z,20.60
2022-10-11T00:06:09.621Z,20.17
2022-10-11T00:08:36.148Z,20.65
2022-10-11T00:11:06.490Z,19.95
2022-10-11T00:13:33.224Z,19.73
2022-10-11T00:15:59.923Z,19.20
2022-10-11T00:18:26.600Z,20.05
2022-10-11T00:21:01.987Z,17.85
2022-10-11T00:23:28.348Z,19.60
2022-10-11T00:26:03.442Z,19.63
2022-10-11T00:28:30.721Z,20.25
2022-10-11T00:30:57.289Z,21.73
2022-10-11T00:33:23.808Z,22.13
2022-10-11T00:35:50.395Z,23.27
2022-10-11T00:38:17.771Z,24.85
2022-10-11T00:40:45.239Z,23.00
2022-10-11T00:43:16.987Z,23.40
2022-10-11T00:45:59.691Z,23.13
2022-10-11T00:48:33.077Z,24.27
2022-10-11T00:51:02.868Z,23.20
2022-10-11T00:53:32.224Z,21.70
2022-10-11T00:56:17.043Z,22.38
2022-10-11T00:58:43.942Z,20.42
2022-10-11T01:01:10.615Z,19.67
2022-10-11T01:03:39.742Z,19.70
2022-10-11T01:06:07.210Z,20.17
2022-10-11T01:08:34.137Z,20.73
2022-10-11T01:11:00.940Z,19.02
2022-10-11T01:13:32.955Z,18.63
2022-10-11T01:16:13.494Z,18.90
2022-10-11T01:19:12.386Z,20.13
2022-10-11T01:22:02.409Z,16.98
2022-10-11T01:24:39.325Z,17.58
2022-10-11T01:27:27.319Z,18.92
2022-10-11T01:30:02.925Z,19.63
2022-10-11T01:32:37.299Z,17.90
2022-10-11T01:37:37.567Z,17.73
2022-10-11T01:40:14.003Z,17.85
2022-10-11T01:42:42.705Z,18.10
2022-10-11T01:45:13.922Z,19.58
2022-10-11T01:47:42.382Z,18.08
2022-10-11T01:50:49.036Z,16.48
2022-10-11T01:53:26.868Z,17.65
2022-10-11T01:56:00.523Z,16.02
2022-10-11T01:58:38.022Z,17.15
2022-10-11T02:01:07.573Z,15.98
2022-10-11T02:03:38.089Z,16.52
2022-10-11T02:06:12.276Z,17.48
2022-10-11T02:08:49.916Z,17.55
2022-10-11T02:11:22.704Z,17.88
2022-10-11T02:13:59.193Z,17.25
2022-10-11T02:16:31.712Z,17.10
2022-10-11T02:19:01.258Z,16.75
2022-10-11T02:21:29.614Z,17.55
2022-10-11T02:24:04.371Z,16.42
2022-10-11T02:26:33.518Z,16.65
2022-10-11T02:29:04.287Z,18.25
2022-10-11T02:31:34.385Z,16.50
2022-10-11T02:34:23.015Z,16.08
2022-10-11T02:37:04.073Z,16.88
2022-10-11T02:39:41.885Z,18.17
2022-10-11T02:42:14.822Z,16.55
2022-10-11T02:44:47.094Z,17.90
2022-10-11T02:47:14.518Z,17.15
2022-10-11T02:49:40.931Z,15.77
2022-10-11T02:52:07.464Z,15.50
2022-10-11T02:54:34.103Z,15.27
2022-10-11T02:57:00.412Z,16.77
2022-10-11T02:59:26.715Z,18.15
2022-10-11T03:01:53.118Z,17.42
2022-10-11T03:04:19.545Z,19.20
2022-10-11T03:06:46.084Z,18.95
2022-10-11T03:09:12.418Z,21.33
2022-10-11T03:11:38.770Z,21.35
2022-10-11T03:14:05.389Z,22.25
2022-10-11T03:16:31.807Z,23.00
2022-10-11T03:18:58.127Z,22.10
2022-10-11T03:21:25.165Z,20.33
2022-10-11T03:23:51.490Z,20.58
2022-10-11T03:26:17.822Z,19.95
2022-10-11T03:28:44.282Z,18.77
2022-10-11T03:31:10.906Z,17.70
2022-10-11T03:33:37.258Z,18.33
2022-10-11T03:36:04.166Z,17.52
2022-10-11T03:38:30.727Z,18.50
2022-10-11T03:40:57.052Z,19.52
2022-10-11T03:43:23.399Z,18.13
2022-10-11T03:45:49.758Z,16.48
2022-10-11T03:48:16.095Z,17.35
2022-10-11T03:50:42.444Z,16.15
2022-10-11T03:53:08.970Z,17.23
2022-10-11T03:55:37.389Z,17.10
2022-10-11T03:58:03.749Z,14.85
2022-10-11T04:00:30.097Z,15.98
2022-10-11T04:02:56.438Z,15.50
2022-10-11T04:05:22.879Z,15.82
2022-10-11T04:07:49.337Z,16.33
2022-10-11T04:10:15.749Z,14.70
2022-10-11T04:12:42.106Z,16.55
2022-10-11T04:15:08.887Z,14.73
2022-10-11T04:17:35.237Z,15.05
2022-10-11T04:20:01.641Z,13.80
2022-10-11T04:22:27.960Z,15.10
2022-10-11T04:24:54.380Z,16.45
2022-10-11T04:27:20.746Z,15.35
2022-10-11T04:29:47.116Z,16.55
2022-10-11T04:32:13.426Z,15.95
2022-10-11T04:34:39.726Z,15.48
2022-10-11T04:37:06.099Z,15.52
2022-10-11T04:39:32.415Z,15.50
2022-10-11T04:41:58.745Z,17.52
2022-10-11T04:44:25.150Z,16.73
2022-10-11T04:46:51.534Z,15.60
2022-10-11T04:49:17.944Z,15.60
2022-10-11T04:51:44.301Z,15.95
2022-10-11T04:54:10.630Z,17.33
2022-10-11T04:56:36.968Z,17.25
2022-10-11T04:59:03.536Z,16.30
2022-10-11T05:01:29.997Z,17.55
2022-10-11T05:03:56.507Z,16.55
2022-10-11T05:06:22.879Z,16.77
2022-10-11T05:08:49.237Z,16.17
2022-10-11T05:11:16.898Z,16.52
2022-10-11T05:13:44.517Z,15.95
2022-10-11T05:16:12.480Z,16.05
2022-10-11T05:18:39.664Z,18.05
2022-10-11T05:21:14.314Z,16.67
2022-10-11T05:23:40.894Z,15.32
2022-10-11T05:26:07.981Z,16.38
2022-10-11T05:28:34.615Z,14.85
2022-10-11T05:31:00.978Z,16.02
2022-10-11T05:33:27.579Z,15.23
2022-10-11T05:35:54.220Z,14.30
2022-10-11T05:38:20.587Z,16.23
2022-10-11T05:40:47.038Z,17.90
2022-10-11T05:43:13.501Z,18.40
2022-10-11T05:45:41.536Z,17.38
2022-10-11T05:48:08.567Z,17.63
2022-10-11T05:50:35.593Z,17.60
2022-10-11T05:53:03.060Z,17.80
2022-10-11T05:55:29.437Z,18.30
2022-10-11T05:57:57.423Z,19.85
2022-10-11T06:00:24.776Z,21.25
2022-10-11T06:02:51.143Z,21.40
2022-10-11T06:05:18.151Z,24.33
2022-10-11T06:07:44.704Z,24.80
2022-10-11T06:10:12.117Z,24.90
2022-10-11T06:12:38.813Z,22.75
2022-10-11T06:15:06.330Z,23.63
2022-10-11T06:17:32.688Z,26.23
2022-10-11T06:19:59.123Z,26.75
2022-10-11T06:22:26.624Z,26.17
2022-10-11T06:24:53.070Z,26.60
2022-10-11T06:27:19.406Z,25.52
2022-10-11T06:29:45.840Z,26.08
2022-10-11T06:32:13.333Z,26.10
2022-10-11T06:34:39.913Z,28.95
2022-10-11T06:37:06.621Z,26.45
2022-10-11T06:39:33.248Z,26.90
2022-10-11T06:41:59.595Z,25.42
2022-10-11T06:44:26.733Z,27.30
2022-10-11T06:46:53.093Z,25.83
2022-10-11T06:49:23.243Z,28.35
2022-10-11T06:51:50.566Z,26.30
2022-10-11T06:54:16.908Z,26.50
2022-10-11T06:56:45.487Z,25.75
2022-10-11T06:59:13.342Z,26.35
2022-10-11T07:01:39.778Z,28.73
2022-10-11T07:04:06.288Z,29.20
2022-10-11T07:06:37.457Z,33.17
2022-10-11T07:09:04.912Z,31.33
2022-10-11T07:11:31.566Z,31.88
2022-10-11T07:14:10.220Z,30.95
2022-10-11T07:16:37.281Z,30.75
2022-10-11T07:19:07.912Z,31.83
2022-10-11T07:29:27.559Z,31.13
2022-10-11T07:32:09.106Z,31.35
2022-10-11T07:34:59.685Z,30.92
2022-10-11T07:37:26.079Z,33.67
2022-10-11T07:39:52.523Z,37.67
2022-10-11T07:42:19.106Z,38.15
2022-10-11T07:44:45.712Z,37.53
2022-10-11T07:47:12.178Z,46.75
2022-10-11T07:49:38.619Z,56.10
2022-10-11T07:52:08.221Z,54.58
2022-10-11T07:54:34.693Z,58.20
2022-10-11T07:57:01.872Z,52.13
2022-10-11T07:59:28.663Z,45.42
2022-10-11T08:01:55.450Z,50.38
2022-10-11T08:04:21.983Z,53.53
2022-10-11T08:06:56.891Z,52.83
2022-10-11T08:09:25.372Z,55.75
2022-10-11T08:11:53.573Z,50.88
2022-10-11T08:14:23.601Z,49.58
2022-10-11T08:16:51.188Z,48.47
2022-10-11T08:19:21.402Z,48.40
2022-10-11T08:21:48.007Z,49.05
2022-10-11T08:24:21.054Z,52.53
2022-10-11T08:26:48.107Z,54.40
2022-10-11T08:29:14.721Z,56.10
2022-10-11T08:31:42.200Z,52.03
2022-10-11T08:34:08.757Z,53.95
2022-10-11T08:36:35.172Z,54.88
2022-10-11T08:39:03.131Z,46.53
2022-10-11T08:41:37.971Z,42.45
2022-10-11T08:44:23.172Z,39.92
2022-10-11T08:47:00.412Z,39.70
2022-10-11T08:49:30.344Z,40.17
2022-10-11T08:52:02.582Z,35.58
2022-10-11T08:54:44.722Z,37.03
2022-10-11T08:57:21.550Z,36.45
2022-10-11T09:00:00.759Z,38.13
2022-10-11T09:10:58.467Z,28.92
2022-10-11T09:13:59.771Z,32.90
2022-10-11T09:16:39.481Z,35.40
2022-10-11T09:20:01.501Z,37.33
2022-10-11T09:22:50.625Z,30.02
2022-10-11T09:25:44.412Z,30.55
2022-10-11T09:28:11.888Z,29.48
2022-10-11T09:30:45.738Z,29.38
2022-10-11T09:33:18.953Z,28.58
2022-10-11T09:35:52.408Z,30.58
2022-10-11T09:38:26.987Z,32.13
2022-10-11T09:41:19.497Z,33.05
2022-10-11T09:43:49.498Z,29.98
2022-10-11T09:46:32.380Z,35.67
2022-10-11T09:49:02.792Z,30.42
2022-10-11T09:51:30.179Z,33.25
2022-10-11T09:54:02.927Z,32.83
2022-10-11T09:56:31.755Z,32.28
2022-10-11T09:59:12.335Z,32.78
2022-10-11T10:01:38.795Z,35.58
2022-10-11T10:04:11.908Z,34.45
2022-10-11T10:06:39.276Z,33.75
2022-10-11T10:09:30.059Z,32.13
2022-10-11T10:11:57.289Z,32.55
2022-10-11T10:14:32.815Z,35.00
2022-10-11T10:17:19.928Z,35.00
2022-10-11T10:19:51.720Z,16.25
2022-10-11T10:22:26.941Z,17.33
2022-10-11T10:24:58.617Z,13.75
2022-10-11T10:27:27.785Z,11.82
2022-10-11T10:30:09.500Z,13.90
2022-10-11T10:33:10.900Z,17.33
2022-10-11T10:35:52.584Z,12.18
2022-10-11T10:38:34.369Z,10.02
2022-10-11T10:41:15.767Z,13.55
2022-10-11T10:43:45.546Z,10.98
2022-10-11T10:46:18.028Z,9.48
2022-10-11T10:49:28.765Z,13.32
2022-10-11T10:52:07.926Z,7.40
2022-10-11T10:55:01.129Z,9.60
2022-10-11T10:57:33.679Z,13.80
2022-10-11T11:00:29.469Z,9.52
2022-10-11T11:03:03.439Z,13.60
2022-10-11T11:05:48.258Z,9.35
2022-10-11T11:08:47.255Z,11.80
2022-10-11T11:11:38.323Z,10.10
2022-10-11T11:14:46.215Z,11.20
2022-10-11T11:17:34.719Z,15.23
2022-10-11T11:20:22.683Z,9.60
2022-10-11T11:23:11.746Z,9.77
2022-10-11T11:26:00.478Z,9.50
2022-10-11T11:28:49.882Z,11.27
2022-10-11T11:31:22.501Z,10.35
2022-10-11T11:34:05.720Z,12.43
2022-10-11T11:36:35.091Z,11.23
2022-10-11T11:39:04.407Z,12.05
2022-10-11T11:41:37.984Z,11.80
2022-10-11T11:44:29.565Z,10.00
2022-10-11T11:46:59.281Z,9.23
2022-10-11T11:49:34.185Z,9.63
2022-10-11T11:52:11.811Z,10.15
2022-10-11T11:54:53.475Z,10.65
2022-10-11T11:57:36.589Z,10.15
2022-10-11T12:00:14.588Z,16.23
2022-10-11T12:02:52.307Z,11.75
2022-10-11T12:05:25.639Z,11.50
2022-10-11T12:07:54.957Z,12.68
2022-10-11T12:10:37.137Z,9.85
2022-10-11T12:13:06.774Z,12.07
2022-10-11T12:15:33.492Z,13.18
2022-10-11T12:18:07.788Z,9.57
2022-10-11T12:20:41.240Z,9.95
2022-10-11T12:23:29.087Z,10.73
2022-10-11T12:26:17.251Z,10.90
2022-10-11T12:28:43.746Z,10.50
2022-10-11T12:31:34.296Z,10.80
2022-10-11T12:34:00.955Z,11.15
2022-10-11T12:36:38.361Z,12.98
2022-10-11T12:39:20.158Z,10.75
2022-10-11T12:41:55.697Z,9.38
2022-10-11T12:44:27.222Z,13.82
2022-10-11T12:46:53.692Z,11.43
2022-10-11T12:49:41.922Z,11.80
2022-10-11T12:52:17.566Z,11.80
2022-10-11T12:55:22.494Z,10.80
2022-10-11T12:58:25.675Z,12.02
2022-10-11T13:00:58.422Z,10.70
2022-10-11T13:03:36.353Z,10.95
2022-10-11T13:06:14.732Z,10.57
2022-10-11T13:08:47.841Z,10.63
2022-10-11T13:11:21.589Z,12.45
2022-10-11T13:13:56.760Z,11.27
2022-10-11T13:16:41.701Z,11.75
2022-10-11T13:19:13.354Z,10.68
2022-10-11T13:21:39.918Z,14.32
2022-10-11T13:24:16.034Z,11.85
2022-10-11T13:29:33.829Z,10.65
2022-10-11T13:32:08.462Z,9.88
2022-10-11T13:34:39.221Z,9.60
2022-10-11T13:37:06.618Z,9.70
2022-10-11T13:39:38.121Z,9.48
2022-10-11T13:42:14.465Z,10.07
2022-10-11T13:44:42.328Z,13.52
2022-10-11T13:47:17.663Z,10.15
2022-10-11T13:49:46.725Z,10.95
2022-10-11T13:52:21.704Z,10.05
2022-10-11T13:55:00.740Z,12.27
2022-10-11T13:57:37.724Z,10.50
2022-10-11T14:00:17.113Z,11.90
2022-10-11T14:10:23.009Z,11.43
2022-10-11T14:13:24.171Z,11.73
2022-10-11T14:16:20.598Z,12.85
2022-10-11T14:18:51.165Z,12.75
2022-10-11T14:21:20.621Z,11.93
2022-10-11T14:23:53.648Z,11.32
2022-10-11T14:26:21.923Z,10.27
2022-10-11T14:28:58.604Z,12.30
2022-10-11T14:31:25.899Z,11.40
2022-10-11T14:34:01.402Z,13.32
2022-10-11T14:36:46.323Z,11.35
2022-10-11T14:39:27.297Z,12.23
2022-10-11T14:41:54.189Z,11.70
2022-10-11T14:44:49.602Z,14.93
2022-10-11T14:47:43.109Z,15.20
2022-10-11T14:50:23.041Z,16.38
2022-10-11T14:52:49.682Z,12.80
2022-10-11T14:55:17.241Z,12.20
2022-10-11T14:57:43.829Z,17.70
2022-10-11T15:00:20.336Z,11.20
2022-10-11T15:02:52.911Z,14.88
2022-10-11T15:05:21.196Z,16.25
2022-10-11T15:10:44.185Z,15.13
2022-10-11T15:13:10.628Z,14.55
2022-10-11T15:15:42.165Z,13.23
2022-10-11T15:18:12.933Z,13.27
2022-10-11T15:20:43.042Z,13.82
2022-10-11T15:23:09.990Z,12.65
2022-10-11T15:25:38.375Z,12.65
2022-10-11T15:28:05.581Z,12.13
2022-10-11T15:30:40.058Z,10.23
2022-10-11T15:33:48.925Z,15.38
2022-10-11T15:36:22.677Z,13.80
2022-10-11T15:38:49.765Z,12.20
2022-10-11T15:41:19.244Z,11.55
2022-10-11T15:43:47.521Z,9.55
2022-10-11T15:46:21.034Z,12.15
2022-10-11T15:48:49.136Z,12.02
2022-10-11T15:51:22.294Z,12.23
2022-10-11T15:54:46.071Z,12.07
2022-10-11T15:57:12.761Z,10.27
2022-10-11T16:00:32.129Z,11.45
2022-10-11T16:02:59.088Z,11.18
2022-10-11T16:05:27.586Z,10.65
2022-10-11T16:07:54.866Z,10.93
2022-10-11T16:10:21.793Z,10.50
2022-10-11T16:12:48.863Z,9.60
2022-10-11T16:15:18.714Z,9.70
2022-10-11T16:17:46.400Z,9.70
2022-10-11T16:20:16.173Z,10.45
2022-10-11T16:22:44.969Z,10.23
2022-10-11T16:25:16.662Z,10.88
2022-10-11T16:27:44.085Z,9.63
2022-10-11T16:30:12.836Z,9.98
2022-10-11T16:32:39.902Z,9.18
2022-10-11T16:35:09.500Z,9.68
2022-10-11T16:37:36.461Z,9.35
2022-10-11T16:40:04.276Z,10.43
2022-10-11T16:42:30.871Z,10.93
2022-10-11T16:44:57.268Z,11.82
2022-10-11T16:47:26.979Z,12.98
2022-10-11T16:49:56.976Z,12.00
2022-10-11T16:52:26.290Z,12.20
2022-10-11T16:54:53.868Z,11.60
2022-10-11T16:57:20.304Z,12.90
2022-10-11T16:59:47.132Z,13.43
2022-10-11T17:02:23.703Z,14.77
2022-10-11T17:04:51.551Z,13.43
2022-10-11T17:07:19.508Z,13.38
2022-10-11T17:09:46.499Z,17.85
2022-10-11T17:12:15.337Z,14.15
2022-10-11T17:14:42.722Z,14.65
2022-10-11T17:17:10.782Z,14.23
2022-10-11T17:19:44.870Z,15.02
2022-10-11T17:22:15.636Z,15.30
2022-10-11T17:24:42.531Z,16.50
2022-10-11T17:27:10.502Z,14.10
2022-10-11T17:29:37.435Z,15.82
2022-10-11T17:32:04.528Z,18.27
2022-10-11T17:34:31.090Z,15.65
2022-10-11T17:36:57.485Z,14.38
2022-10-11T17:39:25.657Z,15.70
2022-10-11T17:41:53.942Z,16.05
2022-10-11T17:44:21.539Z,15.00
2022-10-11T17:46:48.291Z,16.73
2022-10-11T17:49:14.921Z,15.05
2022-10-11T17:51:41.933Z,16.30
2022-10-11T18:05:39.559Z,12.57
2022-10-11T18:26:45.495Z,16.50
2022-10-11T18:29:12.602Z,19.13
2022-10-11T18:31:40.337Z,15.75
2022-10-11T18:34:10.516Z,16.63
2022-10-11T18:36:37.428Z,16.05
2022-10-11T18:39:06.774Z,15.93
2022-10-11T18:41:33.858Z,15.60
2022-10-11T18:44:03.074Z,15.27
2022-10-11T18:46:30.164Z,14.30
2022-10-11T18:48:58.309Z,13.73
2022-10-11T18:51:27.353Z,14.70
2022-10-11T18:53:54.425Z,16.45
2022-10-11T18:56:23.820Z,15.73
2022-10-11T18:58:52.012Z,14.32
2022-10-11T19:01:21.275Z,14.63
2022-10-11T19:03:55.293Z,14.38
2022-10-11T19:06:31.923Z,14.35
2022-10-11T19:09:13.610Z,13.13
2022-10-11T19:11:40.983Z,14.48
2022-10-11T19:14:11.395Z,15.18
2022-10-11T19:16:41.036Z,20.38
2022-10-11T19:19:09.404Z,22.23
2022-10-11T19:21:36.122Z,17.60
2022-10-11T19:24:02.640Z,20.20
2022-10-11T19:26:34.502Z,16.67
2022-10-11T19:29:04.264Z,17.20
2022-10-11T19:31:31.754Z,16.48
2022-10-11T19:33:59.366Z,16.63
2022-10-11T19:36:26.278Z,16.02
2022-10-11T19:38:56.722Z,21.45
2022-10-11T19:41:26.130Z,21.73
2022-10-11T19:43:53.662Z,21.77
2022-10-11T19:49:09.252Z,20.05
2022-10-11T19:51:37.401Z,18.30
2022-10-11T19:54:09.071Z,20.48
2022-10-11T19:56:35.881Z,19.15
2022-10-11T19:59:02.575Z,17.98
2022-10-11T20:01:31.067Z,17.27
2022-10-11T20:04:00.369Z,19.35
2022-10-11T20:06:28.257Z,17.70
2022-10-11T20:09:10.594Z,18.05
2022-10-11T20:11:41.884Z,16.05
2022-10-11T20:14:08.944Z,15.70
2022-10-11T20:16:35.330Z,16.30
2022-10-11T20:19:02.051Z,15.50
2022-10-11T20:21:30.093Z,16.33
2022-10-11T20:23:59.985Z,15.70
2022-10-11T20:26:27.546Z,17.65
2022-10-11T20:28:56.159Z,18.38
2022-10-11T20:31:29.482Z,16.00
2022-10-11T20:34:02.144Z,16.30
2022-10-11T20:37:07.525Z,17.60
2022-10-11T20:39:36.196Z,20.60
2022-10-11T20:42:02.595Z,17.95
2022-10-11T20:44:29.000Z,20.98
2022-10-11T20:46:55.485Z,21.77
2022-10-11T20:49:24.402Z,21.33
2022-10-11T20:51:50.838Z,22.63
2022-10-11T20:54:17.250Z,22.33
2022-10-11T20:56:43.664Z,21.70
2022-10-11T20:59:10.294Z,20.17
2022-10-11T21:01:40.771Z,21.83
2022-10-11T21:04:10.111Z,27.75
2022-10-11T21:06:37.783Z,21.88
2022-10-11T21:09:04.335Z,20.70
2022-10-11T21:11:33.452Z,23.75
2022-10-11T21:14:02.079Z,22.98
2022-10-11T21:16:28.728Z,21.85
2022-10-11T21:18:56.936Z,24.15
2022-10-11T21:21:24.539Z,21.02
2022-10-11T21:24:00.943Z,23.33
2022-10-11T21:26:28.867Z,19.55
2022-10-11T21:28:55.299Z,18.08
2022-10-11T21:31:23.306Z,21.20
2022-10-11T21:33:51.875Z,22.25
2022-10-11T21:36:20.547Z,22.58
2022-10-11T21:38:48.137Z,24.58
2022-10-11T21:41:17.062Z,26.90
2022-10-11T21:43:43.638Z,26.65
2022-10-11T21:46:21.712Z,28.70
2022-10-11T21:48:49.989Z,26.38
2022-10-11T21:51:21.703Z,26.75
2022-10-11T21:53:48.179Z,29.42
2022-10-11T21:56:14.606Z,31.50
2022-10-11T21:58:41.056Z,31.92
2022-10-11T22:01:07.514Z,32.15
2022-10-11T22:03:34.149Z,26.40
2022-10-11T22:06:04.490Z,27.55
2022-10-11T22:08:31.235Z,22.45
2022-10-11T22:10:59.619Z,23.08
2022-10-11T22:13:28.691Z,23.60
2022-10-11T22:15:57.940Z,20.13
2022-10-11T22:18:24.858Z,21.83
2022-10-11T22:20:51.394Z,22.15
2022-10-11T22:23:18.944Z,23.85
2022-10-11T22:25:46.002Z,23.88
2022-10-11T22:28:12.759Z,22.15
2022-10-11T22:30:39.106Z,22.50
2022-10-11T22:33:05.543Z,22.80
2022-10-11T22:35:37.233Z,23.67
2022-10-11T22:38:06.183Z,24.58
2022-10-11T22:40:32.839Z,23.70
2022-10-11T22:42:59.303Z,25.55
2022-10-11T22:45:25.876Z,24.17
2022-10-11T22:47:52.410Z,25.85
2022-10-11T22:50:18.721Z,24.27
2022-10-11T22:52:45.116Z,23.13
2022-10-11T22:55:14.139Z,24.15
2022-10-11T22:57:42.810Z,21.63
2022-10-11T23:00:09.694Z,24.67
2022-10-11T23:02:36.124Z,23.83
2022-10-11T23:05:02.780Z,24.35
2022-10-11T23:07:29.115Z,25.55
2022-10-11T23:09:55.468Z,22.92
2022-10-11T23:12:21.893Z,21.88
2022-10-11T23:14:48.208Z,19.83
2022-10-11T23:17:14.712Z,21.08
2022-10-11T23:19:41.087Z,20.92
2022-10-11T23:22:07.472Z,23.88
2022-10-11T23:24:34.047Z,23.63
2022-10-11T23:27:00.479Z,26.63
2022-10-11T23:29:29.856Z,27.05
2022-10-11T23:31:56.295Z,26.30
2022-10-11T23:34:22.707Z,28.13
2022-10-11T23:36:49.180Z,27.35
2022-10-11T23:39:15.999Z,26.42
2022-10-11T23:41:43.711Z,29.33
2022-10-11T23:44:10.543Z,29.77
2022-10-11T23:46:36.918Z,32.17
2022-10-11T23:49:03.767Z,32.70
2022-10-11T23:51:30.164Z,30.02
2022-10-11T23:53:56.545Z,31.95
2022-10-11T23:56:22.962Z,31.63
2022-10-11T23:58:49.394Z,29.77
